sensor_id;sensor_type;location;lat;lon;timestamp;pressure;altitude;pressure_sealevel;temperature;humidity
23643;BME280;11998;55.788;37.572;2023-01-27T00:00:33;99336.44;;;-1.61;100.00
23643;BME280;11998;55.788;37.572;2023-01-27T00:01:34;99329.56;;;-1.59;100.00
23643;BME280;11998;55.788;37.572;2023-01-27T00:02:34;99336.53;;;-1.58;100.00
23643;BME280;11998;55.788;37.572;2023-01-27T00:03:35;99338.28;;;-1.57;100.00
23643;BME280;11998;55.788;37.572;2023-01-27T00:04:35;99332.16;;;-1.59;100.00
23643;BME280;11998;55.788;37.572;2023-01-27T00:05:36;99333.00;;;-1.60;100.00
23643;BME280;11998;55.788;37.572;2023-01-27T00:06:36;99323.41;;;-1.62;100.00
23643;BME280;11998;55.788;37.572;2023-01-27T00:07:37;99339.97;;;-1.59;100.00
23643;BME280;11998;55.788;37.572;2023-01-27T00:08:38;99333.06;;;-1.57;100.00
23643;BME280;11998;55.788;37.572;2023-01-27T00:09:39;99337.22;;;-1.63;100.00
23643;BME280;11998;55.788;37.572;2023-01-27T00:10:41;99329.41;;;-1.65;100.00
23643;BME280;11998;55.788;37.572;2023-01-27T00:11:41;99330.28;;;-1.64;100.00
23643;BME280;11998;55.788;37.572;2023-01-27T00:13:01;99332.84;;;-1.66;100.00
23643;BME280;11998;55.788;37.572;2023-01-27T00:14:20;99320.78;;;-1.64;100.00
23643;BME280;11998;55.788;37.572;2023-01-27T00:15:22;99326.06;;;-1.61;100.00
23643;BME280;11998;55.788;37.572;2023-01-27T00:16:22;99338.25;;;-1.58;100.00
23643;BME280;11998;55.788;37.572;2023-01-27T00:17:23;99331.38;;;-1.55;100.00
23643;BME280;11998;55.788;37.572;2023-01-27T00:18:23;99330.47;;;-1.57;100.00
23643;BME280;11998;55.788;37.572;2023-01-27T00:19:25;99333.91;;;-1.58;100.00
23643;BME280;11998;55.788;37.572;2023-01-27T00:20:26;99333.06;;;-1.57;100.00
23643;BME280;11998;55.788;37.572;2023-01-27T00:21:45;99334.75;;;-1.59;100.00
23643;BME280;11998;55.788;37.572;2023-01-27T00:23:05;99344.97;;;-1.65;100.00
23643;BME280;11998;55.788;37.572;2023-01-27T00:24:25;99331.09;;;-1.67;100.00
23643;BME280;11998;55.788;37.572;2023-01-27T00:25:37;99330.22;;;-1.67;100.00
23643;BME280;11998;55.788;37.572;2023-01-27T00:26:38;99325.84;;;-1.70;100.00
23643;BME280;11998;55.788;37.572;2023-01-27T00:27:39;99324.97;;;-1.70;100.00
23643;BME280;11998;55.788;37.572;2023-01-27T00:28:40;99330.16;;;-1.70;100.00
23643;BME280;11998;55.788;37.572;2023-01-27T00:29:42;99320.72;;;-1.67;100.00
23643;BME280;11998;55.788;37.572;2023-01-27T00:30:43;99332.78;;;-1.69;100.00
23643;BME280;11998;55.788;37.572;2023-01-27T00:31:43;99325.88;;;-1.68;100.00
23643;BME280;11998;55.788;37.572;2023-01-27T00:33:03;99318.78;;;-1.74;100.00
23643;BME280;11998;55.788;37.572;2023-01-27T00:34:22;99329.03;;;-1.80;100.00
23643;BME280;11998;55.788;37.572;2023-01-27T00:35:23;99325.59;;;-1.79;100.00
23643;BME280;11998;55.788;37.572;2023-01-27T00:36:24;99328.25;;;-1.76;100.00
23643;BME280;11998;55.788;37.572;2023-01-27T00:37:25;99321.34;;;-1.75;100.00
23643;BME280;11998;55.788;37.572;2023-01-27T00:38:30;99323.09;;;-1.74;100.00
23643;BME280;11998;55.788;37.572;2023-01-27T00:39:30;99320.47;;;-1.76;100.00
23643;BME280;11998;55.788;37.572;2023-01-27T00:40:33;99308.41;;;-1.74;100.00
23643;BME280;11998;55.788;37.572;2023-01-27T00:41:34;99316.97;;;-1.78;100.00
23643;BME280;11998;55.788;37.572;2023-01-27T00:42:34;99317.03;;;-1.75;100.00
23643;BME280;11998;55.788;37.572;2023-01-27T00:43:35;99322.47;;;-1.66;100.00
23643;BME280;11998;55.788;37.572;2023-01-27T00:44:35;99317.97;;;-1.73;100.00
23643;BME280;11998;55.788;37.572;2023-01-27T00:45:36;99317.19;;;-1.69;100.00
23643;BME280;11998;55.788;37.572;2023-01-27T00:46:52;99312.72;;;-1.74;100.00
23643;BME280;11998;55.788;37.572;2023-01-27T00:47:52;99316.16;;;-1.75;100.00
23643;BME280;11998;55.788;37.572;2023-01-27T00:48:53;99318.72;;;-1.77;100.00
23643;BME280;11998;55.788;37.572;2023-01-27T00:49:53;99312.66;;;-1.78;100.00
23643;BME280;11998;55.788;37.572;2023-01-27T00:50:54;99313.47;;;-1.80;100.00
23643;BME280;11998;55.788;37.572;2023-01-27T00:51:54;99317.03;;;-1.75;100.00
23643;BME280;11998;55.788;37.572;2023-01-27T00:52:55;99316.91;;;-1.81;100.00
23643;BME280;11998;55.788;37.572;2023-01-27T00:53:58;99316.75;;;-1.87;100.00
23643;BME280;11998;55.788;37.572;2023-01-27T00:54:58;99317.72;;;-1.84;100.00
23643;BME280;11998;55.788;37.572;2023-01-27T00:55:59;99318.59;;;-1.83;100.00
23643;BME280;11998;55.788;37.572;2023-01-27T00:56:59;99322.03;;;-1.84;100.00
23643;BME280;11998;55.788;37.572;2023-01-27T00:58:00;99313.22;;;-1.89;100.00
23643;BME280;11998;55.788;37.572;2023-01-27T00:59:00;99314.91;;;-1.91;100.00
23643;BME280;11998;55.788;37.572;2023-01-27T01:00:02;99306.34;;;-1.87;100.00
23643;BME280;11998;55.788;37.572;2023-01-27T01:01:06;99314.28;;;-1.83;100.00
23643;BME280;11998;55.788;37.572;2023-01-27T01:02:06;99322.09;;;-1.81;100.00
23643;BME280;11998;55.788;37.572;2023-01-27T01:03:07;99310.81;;;-1.83;100.00
23643;BME280;11998;55.788;37.572;2023-01-27T01:04:08;99308.22;;;-1.83;100.00
23643;BME280;11998;55.788;37.572;2023-01-27T01:05:08;99317.75;;;-1.82;100.00
23643;BME280;11998;55.788;37.572;2023-01-27T01:06:14;99316.91;;;-1.81;100.00
23643;BME280;11998;55.788;37.572;2023-01-27T01:07:15;99309.03;;;-1.86;100.00
23643;BME280;11998;55.788;37.572;2023-01-27T01:08:15;99315.75;;;-1.92;100.00
23643;BME280;11998;55.788;37.572;2023-01-27T01:09:16;99320.03;;;-1.94;100.00
23643;BME280;11998;55.788;37.572;2023-01-27T01:10:17;99320.91;;;-1.94;100.00
23643;BME280;11998;55.788;37.572;2023-01-27T01:11:19;99303.59;;;-1.95;100.00
23643;BME280;11998;55.788;37.572;2023-01-27T01:12:20;99309.66;;;-1.94;100.00
23643;BME280;11998;55.788;37.572;2023-01-27T01:13:20;99319.97;;;-1.97;100.00
23643;BME280;11998;55.788;37.572;2023-01-27T01:14:21;99318.13;;;-2.01;100.00
23643;BME280;11998;55.788;37.572;2023-01-27T01:15:24;99307.84;;;-1.98;100.00
23643;BME280;11998;55.788;37.572;2023-01-27T01:16:24;99324.34;;;-1.95;100.00
23643;BME280;11998;55.788;37.572;2023-01-27T01:17:25;99313.81;;;-2.01;100.00
23643;BME280;11998;55.788;37.572;2023-01-27T01:18:26;99314.59;;;-2.03;100.00
23643;BME280;11998;55.788;37.572;2023-01-27T01:19:29;99318.84;;;-2.07;100.00
23643;BME280;11998;55.788;37.572;2023-01-27T01:20:30;99329.22;;;-2.07;100.00
23643;BME280;11998;55.788;37.572;2023-01-27T01:21:30;99328.31;;;-2.09;100.00
23643;BME280;11998;55.788;37.572;2023-01-27T01:22:31;99316.22;;;-2.09;100.00
23643;BME280;11998;55.788;37.572;2023-01-27T01:23:32;99322.19;;;-2.11;100.00
23643;BME280;11998;55.788;37.572;2023-01-27T01:24:33;99318.97;;;-2.02;100.00
23643;BME280;11998;55.788;37.572;2023-01-27T01:25:34;99314.59;;;-2.03;100.00
23643;BME280;11998;55.788;37.572;2023-01-27T01:26:35;99319.88;;;-2.00;100.00
23643;BME280;11998;55.788;37.572;2023-01-27T01:27:35;99310.47;;;-1.97;100.00
23643;BME280;11998;55.788;37.572;2023-01-27T01:28:36;99318.03;;;-2.04;100.00
23643;BME280;11998;55.788;37.572;2023-01-27T01:29:37;99321.72;;;-1.96;100.00
23643;BME280;11998;55.788;37.572;2023-01-27T01:30:37;99323.47;;;-1.95;100.00
23643;BME280;11998;55.788;37.572;2023-01-27T01:31:38;99314.78;;;-1.97;100.00
23643;BME280;11998;55.788;37.572;2023-01-27T01:32:38;99318.28;;;-1.95;100.00
23643;BME280;11998;55.788;37.572;2023-01-27T01:33:39;99315.44;;;-2.04;100.00
23643;BME280;11998;55.788;37.572;2023-01-27T01:34:39;99319.72;;;-2.07;100.00
23643;BME280;11998;55.788;37.572;2023-01-27T01:35:40;99316.97;;;-2.13;100.00
23643;BME280;11998;55.788;37.572;2023-01-27T01:36:40;99313.63;;;-2.09;100.00
23643;BME280;11998;55.788;37.572;2023-01-27T01:37:41;99317.09;;;-2.08;100.00
23643;BME280;11998;55.788;37.572;2023-01-27T01:38:42;99311.03;;;-2.09;100.00
23643;BME280;11998;55.788;37.572;2023-01-27T01:39:42;99312.84;;;-2.04;100.00
23643;BME280;11998;55.788;37.572;2023-01-27T01:40:43;99305.19;;;-2.00;100.00
23643;BME280;11998;55.788;37.572;2023-01-27T01:41:44;99307.84;;;-1.98;100.00
23643;BME280;11998;55.788;37.572;2023-01-27T01:43:53;99302.78;;;-1.92;100.00
23643;BME280;11998;55.788;37.572;2023-01-27T01:46:32;99301.81;;;-1.97;100.00
23643;BME280;11998;55.788;37.572;2023-01-27T01:47:33;99307.00;;;-1.97;100.00
23643;BME280;11998;55.788;37.572;2023-01-27T01:48:43;99312.19;;;-1.97;100.00
23643;BME280;11998;55.788;37.572;2023-01-27T01:49:46;99305.38;;;-1.92;100.00
23643;BME280;11998;55.788;37.572;2023-01-27T01:52:02;99309.50;;;-2.00;100.00
23643;BME280;11998;55.788;37.572;2023-01-27T01:53:05;99319.81;;;-2.03;100.00
23643;BME280;11998;55.788;37.572;2023-01-27T01:54:23;99303.31;;;-2.05;100.00
23643;BME280;11998;55.788;37.572;2023-01-27T01:55:25;99304.22;;;-2.03;100.00
23643;BME280;11998;55.788;37.572;2023-01-27T01:56:32;99305.84;;;-2.09;100.00
23643;BME280;11998;55.788;37.572;2023-01-27T01:57:35;99298.91;;;-2.10;100.00
23643;BME280;11998;55.788;37.572;2023-01-27T01:58:42;99298.97;;;-2.07;100.00
23643;BME280;11998;55.788;37.572;2023-01-27T01:59:59;99302.66;;;-1.98;100.00
23643;BME280;11998;55.788;37.572;2023-01-27T02:01:03;99286.09;;;-2.02;100.00
23643;BME280;11998;55.788;37.572;2023-01-27T02:02:09;99297.34;;;-2.01;100.00
23643;BME280;11998;55.788;37.572;2023-01-27T02:03:11;99299.09;;;-2.00;100.00
23643;BME280;11998;55.788;37.572;2023-01-27T02:04:15;99292.09;;;-2.04;100.00
23643;BME280;11998;55.788;37.572;2023-01-27T02:05:25;99292.91;;;-2.07;100.00
23643;BME280;11998;55.788;37.572;2023-01-27T02:06:27;99293.63;;;-2.13;100.00
23643;BME280;11998;55.788;37.572;2023-01-27T02:08:44;99286.81;;;-2.09;100.00
23643;BME280;11998;55.788;37.572;2023-01-27T02:09:45;99290.19;;;-2.12;100.00
23643;BME280;11998;55.788;37.572;2023-01-27T02:10:46;99289.31;;;-2.12;100.00
23643;BME280;11998;55.788;37.572;2023-01-27T02:11:50;99291.03;;;-2.13;100.00
23643;BME280;11998;55.788;37.572;2023-01-27T02:12:51;99297.03;;;-2.14;100.00
23643;BME280;11998;55.788;37.572;2023-01-27T02:13:52;99300.56;;;-2.12;100.00
23643;BME280;11998;55.788;37.572;2023-01-27T02:14:53;99292.75;;;-2.13;100.00
23643;BME280;11998;55.788;37.572;2023-01-27T02:15:54;99297.03;;;-2.14;100.00
23643;BME280;11998;55.788;37.572;2023-01-27T02:16:55;99291.13;;;-2.10;100.00
23643;BME280;11998;55.788;37.572;2023-01-27T02:17:58;99298.19;;;-2.02;100.00
23643;BME280;11998;55.788;37.572;2023-01-27T02:19:00;99289.56;;;-2.01;100.00
23643;BME280;11998;55.788;37.572;2023-01-27T02:20:08;99295.66;;;-1.99;100.00
23643;BME280;11998;55.788;37.572;2023-01-27T02:21:11;99283.53;;;-2.00;100.00
23643;BME280;11998;55.788;37.572;2023-01-27T02:22:19;99280.91;;;-2.02;100.00
23643;BME280;11998;55.788;37.572;2023-01-27T02:23:36;99287.09;;;-1.98;100.00
23643;BME280;11998;55.788;37.572;2023-01-27T02:24:44;99285.16;;;-2.05;100.00
23643;BME280;11998;55.788;37.572;2023-01-27T02:26:00;99290.28;;;-2.09;100.00
23643;BME280;11998;55.788;37.572;2023-01-27T02:27:03;99286.84;;;-2.08;100.00
23643;BME280;11998;55.788;37.572;2023-01-27T02:28:06;99278.22;;;-2.07;100.00
23643;BME280;11998;55.788;37.572;2023-01-27T02:29:09;99298.06;;;-2.09;100.00
23643;BME280;11998;55.788;37.572;2023-01-27T02:30:10;99282.47;;;-2.10;100.00
23643;BME280;11998;55.788;37.572;2023-01-27T02:31:11;99276.41;;;-2.11;100.00
23643;BME280;11998;55.788;37.572;2023-01-27T02:32:38;99286.78;;;-2.11;100.00
23643;BME280;11998;55.788;37.572;2023-01-27T02:33:38;99286.59;;;-2.17;100.00
23643;BME280;11998;55.788;37.572;2023-01-27T02:34:39;99284.03;;;-2.15;100.00
23643;BME280;11998;55.788;37.572;2023-01-27T02:36:00;99291.78;;;-2.17;100.00
23643;BME280;11998;55.788;37.572;2023-01-27T02:37:04;99292.56;;;-2.21;100.00
23643;BME280;11998;55.788;37.572;2023-01-27T02:38:08;99291.69;;;-2.21;100.00
23643;BME280;11998;55.788;37.572;2023-01-27T02:39:13;99294.38;;;-2.17;100.00
23643;BME280;11998;55.788;37.572;2023-01-27T02:40:15;99284.84;;;-2.18;100.00
23643;BME280;11998;55.788;37.572;2023-01-27T02:41:35;99281.59;;;-2.11;100.00
23643;BME280;11998;55.788;37.572;2023-01-27T02:42:36;99290.09;;;-2.15;100.00
23643;BME280;11998;55.788;37.572;2023-01-27T02:43:37;99277.91;;;-2.19;100.00
23643;BME280;11998;55.788;37.572;2023-01-27T02:44:37;99290.09;;;-2.15;100.00
23643;BME280;11998;55.788;37.572;2023-01-27T02:45:38;99279.72;;;-2.15;100.00
23643;BME280;11998;55.788;37.572;2023-01-27T02:46:39;99293.47;;;-2.19;100.00
23643;BME280;11998;55.788;37.572;2023-01-27T02:47:39;99296.03;;;-2.20;100.00
23643;BME280;11998;55.788;37.572;2023-01-27T02:48:40;99281.16;;;-2.26;100.00
23643;BME280;11998;55.788;37.572;2023-01-27T02:49:40;99289.88;;;-2.24;100.00
23643;BME280;11998;55.788;37.572;2023-01-27T02:50:40;99283.03;;;-2.22;100.00
23643;BME280;11998;55.788;37.572;2023-01-27T02:51:41;99289.97;;;-2.21;100.00
23643;BME280;11998;55.788;37.572;2023-01-27T02:52:42;99289.09;;;-2.21;100.00
23643;BME280;11998;55.788;37.572;2023-01-27T02:53:43;99286.47;;;-2.23;100.00
23643;BME280;11998;55.788;37.572;2023-01-27T02:54:44;99291.69;;;-2.21;100.00
23643;BME280;11998;55.788;37.572;2023-01-27T02:55:44;99282.03;;;-2.25;100.00
23643;BME280;11998;55.788;37.572;2023-01-27T02:56:45;99290.75;;;-2.23;100.00
23643;BME280;11998;55.788;37.572;2023-01-27T02:57:45;99293.28;;;-2.25;100.00
23643;BME280;11998;55.788;37.572;2023-01-27T02:58:46;99286.34;;;-2.26;100.00
23643;BME280;11998;55.788;37.572;2023-01-27T02:59:46;99286.47;;;-2.23;100.00
23643;BME280;11998;55.788;37.572;2023-01-27T03:00:47;99281.16;;;-2.26;100.00
23643;BME280;11998;55.788;37.572;2023-01-27T03:01:48;99279.34;;;-2.30;100.00
23643;BME280;11998;55.788;37.572;2023-01-27T03:02:48;99279.34;;;-2.30;100.00
23643;BME280;11998;55.788;37.572;2023-01-27T03:03:49;99280.28;;;-2.26;100.00
23643;BME280;11998;55.788;37.572;2023-01-27T03:04:50;99276.78;;;-2.28;100.00
23643;BME280;11998;55.788;37.572;2023-01-27T03:05:51;99288.03;;;-2.28;100.00
23643;BME280;11998;55.788;37.572;2023-01-27T03:06:51;99280.25;;;-2.28;100.00
23643;BME280;11998;55.788;37.572;2023-01-27T03:07:52;99279.34;;;-2.30;100.00
23643;BME280;11998;55.788;37.572;2023-01-27T03:08:52;99294.06;;;-2.29;100.00
23643;BME280;11998;55.788;37.572;2023-01-27T03:09:53;99286.34;;;-2.26;100.00
23643;BME280;11998;55.788;37.572;2023-01-27T03:10:53;99279.44;;;-2.25;100.00
23643;BME280;11998;55.788;37.572;2023-01-27T03:11:55;99280.31;;;-2.25;100.00
23643;BME280;11998;55.788;37.572;2023-01-27T03:13:14;99285.47;;;-2.26;100.00
23643;BME280;11998;55.788;37.572;2023-01-27T03:14:15;99286.34;;;-2.26;100.00
23643;BME280;11998;55.788;37.572;2023-01-27T03:15:15;99279.34;;;-2.30;100.00
23643;BME280;11998;55.788;37.572;2023-01-27T03:16:36;99282.59;;;-2.37;100.00
23643;BME280;11998;55.788;37.572;2023-01-27T03:18:05;99269.84;;;-2.29;100.00
23643;BME280;11998;55.788;37.572;2023-01-27T03:19:10;99282.00;;;-2.27;100.00
23643;BME280;11998;55.788;37.572;2023-01-27T03:20:11;99282.84;;;-2.28;100.00
23643;BME280;11998;55.788;37.572;2023-01-27T03:21:11;99277.75;;;-2.25;100.00
23643;BME280;11998;55.788;37.572;2023-01-27T03:22:12;99272.47;;;-2.28;100.00
23643;BME280;11998;55.788;37.572;2023-01-27T03:23:15;99295.78;;;-2.29;100.00
23643;BME280;11998;55.788;37.572;2023-01-27T03:24:15;99283.66;;;-2.30;100.00
23643;BME280;11998;55.788;37.572;2023-01-27T03:25:16;99270.66;;;-2.32;100.00
23643;BME280;11998;55.788;37.572;2023-01-27T03:26:17;99277.59;;;-2.31;100.00
23643;BME280;11998;55.788;37.572;2023-01-27T03:27:17;99291.47;;;-2.29;100.00
23643;BME280;11998;55.788;37.572;2023-01-27T03:28:18;99277.75;;;-2.25;100.00
23643;BME280;11998;55.788;37.572;2023-01-27T03:29:18;99281.16;;;-2.26;100.00
23643;BME280;11998;55.788;37.572;2023-01-27T03:30:38;99284.69;;;-2.24;100.00
23643;BME280;11998;55.788;37.572;2023-01-27T03:31:38;99281.16;;;-2.26;100.00
23643;BME280;11998;55.788;37.572;2023-01-27T03:32:39;99278.56;;;-2.26;100.00
23643;BME280;11998;55.788;37.572;2023-01-27T03:33:45;99278.56;;;-2.26;100.00
23643;BME280;11998;55.788;37.572;2023-01-27T03:34:46;99277.59;;;-2.31;100.00
23643;BME280;11998;55.788;37.572;2023-01-27T03:35:47;99276.78;;;-2.28;100.00
23643;BME280;11998;55.788;37.572;2023-01-27T03:36:48;99274.19;;;-2.28;100.00
23643;BME280;11998;55.788;37.572;2023-01-27T03:38:11;99281.09;;;-2.29;100.00
23643;BME280;11998;55.788;37.572;2023-01-27T03:39:30;99279.28;;;-2.33;100.00
23643;BME280;11998;55.788;37.572;2023-01-27T03:40:50;99283.66;;;-2.30;100.00
23643;BME280;11998;55.788;37.572;2023-01-27T03:42:09;99293.16;;;-2.31;100.00
23643;BME280;11998;55.788;37.572;2023-01-27T03:43:28;99280.22;;;-2.29;100.00
23643;BME280;11998;55.788;37.572;2023-01-27T03:44:47;99286.25;;;-2.30;100.00
23643;BME280;11998;55.788;37.572;2023-01-27T03:46:06;99287.91;;;-2.34;100.00
23643;BME280;11998;55.788;37.572;2023-01-27T03:47:19;99293.09;;;-2.34;100.00
23643;BME280;11998;55.788;37.572;2023-01-27T03:48:20;99287.91;;;-2.34;100.00
23643;BME280;11998;55.788;37.572;2023-01-27T03:49:20;99282.78;;;-2.31;100.00
23643;BME280;11998;55.788;37.572;2023-01-27T03:50:21;99289.66;;;-2.33;100.00
23643;BME280;11998;55.788;37.572;2023-01-27T03:51:36;99291.41;;;-2.32;100.00
23643;BME280;11998;55.788;37.572;2023-01-27T03:52:37;99292.28;;;-2.31;100.00
23643;BME280;11998;55.788;37.572;2023-01-27T03:53:37;99297.44;;;-2.33;100.00
23643;BME280;11998;55.788;37.572;2023-01-27T03:54:38;99291.41;;;-2.32;100.00
23643;BME280;11998;55.788;37.572;2023-01-27T03:55:38;99305.28;;;-2.30;100.00
23643;BME280;11998;55.788;37.572;2023-01-27T03:56:39;99302.72;;;-2.28;100.00
23643;BME280;11998;55.788;37.572;2023-01-27T03:57:40;99293.22;;;-2.28;100.00
23643;BME280;11998;55.788;37.572;2023-01-27T03:58:57;99302.94;;;-2.21;100.00
23643;BME280;11998;55.788;37.572;2023-01-27T04:00:04;99309.75;;;-2.24;100.00
23643;BME280;11998;55.788;37.572;2023-01-27T04:01:18;99306.38;;;-2.22;100.00
23643;BME280;11998;55.788;37.572;2023-01-27T04:02:21;99305.53;;;-2.21;100.00
23643;BME280;11998;55.788;37.572;2023-01-27T04:03:41;99300.41;;;-2.18;100.00
23643;BME280;11998;55.788;37.572;2023-01-27T04:05:04;99298.81;;;-2.13;100.00
23643;BME280;11998;55.788;37.572;2023-01-27T04:06:28;99300.56;;;-2.12;100.00
23643;BME280;11998;55.788;37.572;2023-01-27T04:07:48;99303.22;;;-2.10;100.00
23643;BME280;11998;55.788;37.572;2023-01-27T04:08:48;99292.78;;;-2.12;100.00
23643;BME280;11998;55.788;37.572;2023-01-27T04:09:50;99302.34;;;-2.11;100.00
23643;BME280;11998;55.788;37.572;2023-01-27T04:10:50;99291.97;;;-2.11;100.00
23643;BME280;11998;55.788;37.572;2023-01-27T04:12:11;99312.53;;;-2.17;100.00
23643;BME280;11998;55.788;37.572;2023-01-27T04:13:11;99302.94;;;-2.21;100.00
23643;BME280;11998;55.788;37.572;2023-01-27T04:14:12;99307.22;;;-2.23;100.00
23643;BME280;11998;55.788;37.572;2023-01-27T04:15:13;99309.03;;;-2.19;100.00
23643;BME280;11998;55.788;37.572;2023-01-27T04:16:13;99309.91;;;-2.18;100.00
23643;BME280;11998;55.788;37.572;2023-01-27T04:17:17;99298.66;;;-2.19;100.00
23643;BME280;11998;55.788;37.572;2023-01-27T04:18:17;99304.97;;;-2.09;100.00
23643;BME280;11998;55.788;37.572;2023-01-27T04:19:18;99307.59;;;-2.08;100.00
23643;BME280;11998;55.788;37.572;2023-01-27T04:20:19;99305.84;;;-2.09;100.00
23643;BME280;11998;55.788;37.572;2023-01-27T04:21:19;99302.22;;;-2.14;100.00
23643;BME280;11998;55.788;37.572;2023-01-27T04:22:20;99299.66;;;-2.14;100.00
23643;BME280;11998;55.788;37.572;2023-01-27T04:23:21;99310.84;;;-2.15;100.00
23643;BME280;11998;55.788;37.572;2023-01-27T04:24:21;99304.75;;;-2.17;100.00
23643;BME280;11998;55.788;37.572;2023-01-27T04:25:22;99304.88;;;-2.12;100.00
23643;BME280;11998;55.788;37.572;2023-01-27T04:26:23;99301.31;;;-2.16;100.00
23643;BME280;11998;55.788;37.572;2023-01-27T04:27:24;99291.84;;;-2.14;100.00
23643;BME280;11998;55.788;37.572;2023-01-27T04:28:25;99303.91;;;-2.16;100.00
23643;BME280;11998;55.788;37.572;2023-01-27T04:29:28;99302.13;;;-2.18;100.00
23643;BME280;11998;55.788;37.572;2023-01-27T04:30:29;99303.91;;;-2.16;100.00
23643;BME280;11998;55.788;37.572;2023-01-27T04:31:30;99302.38;;;-2.09;100.00
23643;BME280;11998;55.788;37.572;2023-01-27T04:32:31;99304.97;;;-2.09;100.00
23643;BME280;11998;55.788;37.572;2023-01-27T04:33:32;99307.44;;;-2.14;100.00
23643;BME280;11998;55.788;37.572;2023-01-27T04:34:32;99304.00;;;-2.13;100.00
23643;BME280;11998;55.788;37.572;2023-01-27T04:35:33;99306.56;;;-2.14;100.00
23643;BME280;11998;55.788;37.572;2023-01-27T04:36:33;99314.22;;;-2.19;100.00
23643;BME280;11998;55.788;37.572;2023-01-27T04:37:34;99316.69;;;-2.23;100.00
23643;BME280;11998;55.788;37.572;2023-01-27T04:38:34;99299.31;;;-2.26;100.00
23643;BME280;11998;55.788;37.572;2023-01-27T04:39:35;99313.97;;;-2.28;100.00
23643;BME280;11998;55.788;37.572;2023-01-27T04:40:36;99318.31;;;-2.27;100.00
23643;BME280;11998;55.788;37.572;2023-01-27T04:41:36;99314.75;;;-2.32;100.00
23643;BME280;11998;55.788;37.572;2023-01-27T04:42:37;99319.97;;;-2.30;100.00
23643;BME280;11998;55.788;37.572;2023-01-27T04:43:37;99314.03;;;-2.25;100.00
23643;BME280;11998;55.788;37.572;2023-01-27T04:44:38;99321.75;;;-2.28;100.00
23643;BME280;11998;55.788;37.572;2023-01-27T04:45:39;99321.72;;;-2.29;100.00
23643;BME280;11998;55.788;37.572;2023-01-27T04:46:40;99324.34;;;-2.28;100.00
23643;BME280;11998;55.788;37.572;2023-01-27T04:47:40;99314.03;;;-2.25;100.00
23643;BME280;11998;55.788;37.572;2023-01-27T04:48:41;99317.47;;;-2.26;100.00
23643;BME280;11998;55.788;37.572;2023-01-27T04:49:41;99317.41;;;-2.29;100.00
23643;BME280;11998;55.788;37.572;2023-01-27T04:50:43;99316.50;;;-2.31;100.00
23643;BME280;11998;55.788;37.572;2023-01-27T04:51:43;99322.66;;;-2.26;100.00
23643;BME280;11998;55.788;37.572;2023-01-27T04:52:44;99314.03;;;-2.25;100.00
23643;BME280;11998;55.788;37.572;2023-01-27T04:53:44;99322.78;;;-2.23;100.00
23643;BME280;11998;55.788;37.572;2023-01-27T04:54:45;99324.66;;;-2.16;100.00
23643;BME280;11998;55.788;37.572;2023-01-27T04:55:48;99322.16;;;-2.13;100.00
23643;BME280;11998;55.788;37.572;2023-01-27T04:56:59;99317.81;;;-2.14;100.00
23643;BME280;11998;55.788;37.572;2023-01-27T04:58:03;99322.06;;;-2.16;100.00
23643;BME280;11998;55.788;37.572;2023-01-27T04:59:10;99317.72;;;-2.17;100.00
23643;BME280;11998;55.788;37.572;2023-01-27T05:00:12;99323.75;;;-2.18;100.00
23643;BME280;11998;55.788;37.572;2023-01-27T05:01:12;99314.22;;;-2.19;100.00
23643;BME280;11998;55.788;37.572;2023-01-27T05:02:13;99320.34;;;-2.15;100.00
23643;BME280;11998;55.788;37.572;2023-01-27T05:03:13;99314.28;;;-2.16;100.00
23643;BME280;11998;55.788;37.572;2023-01-27T05:04:16;99321.16;;;-2.18;100.00
23643;BME280;11998;55.788;37.572;2023-01-27T05:05:17;99316.00;;;-2.16;100.00
23643;BME280;11998;55.788;37.572;2023-01-27T05:06:18;99316.75;;;-2.22;100.00
23643;BME280;11998;55.788;37.572;2023-01-27T05:07:18;99317.66;;;-2.20;100.00
23643;BME280;11998;55.788;37.572;2023-01-27T05:08:19;99325.50;;;-2.17;100.00
23643;BME280;11998;55.788;37.572;2023-01-27T05:09:19;99321.16;;;-2.18;100.00
23643;BME280;11998;55.788;37.572;2023-01-27T05:10:20;99321.09;;;-2.21;100.00
23643;BME280;11998;55.788;37.572;2023-01-27T05:11:21;99315.06;;;-2.20;100.00
23643;BME280;11998;55.788;37.572;2023-01-27T05:12:21;99321.09;;;-2.21;100.00
23643;BME280;11998;55.788;37.572;2023-01-27T05:13:22;99319.47;;;-2.16;100.00
23643;BME280;11998;55.788;37.572;2023-01-27T05:14:23;99326.34;;;-2.18;100.00
23643;BME280;11998;55.788;37.572;2023-01-27T05:15:25;99310.78;;;-2.18;100.00
23643;BME280;11998;55.788;37.572;2023-01-27T05:16:28;99323.75;;;-2.18;100.00
23643;BME280;11998;55.788;37.572;2023-01-27T05:17:32;99333.19;;;-2.21;100.00
23643;BME280;11998;55.788;37.572;2023-01-27T05:18:33;99320.19;;;-2.23;100.00
23643;BME280;11998;55.788;37.572;2023-01-27T05:19:34;99324.59;;;-2.19;100.00
23643;BME280;11998;55.788;37.572;2023-01-27T05:20:34;99326.19;;;-2.24;100.00
23643;BME280;11998;55.788;37.572;2023-01-27T05:21:35;99332.25;;;-2.23;100.00
23643;BME280;11998;55.788;37.572;2023-01-27T05:22:35;99332.25;;;-2.23;100.00
23643;BME280;11998;55.788;37.572;2023-01-27T05:23:36;99327.13;;;-2.22;100.00
23643;BME280;11998;55.788;37.572;2023-01-27T05:24:37;99323.66;;;-2.22;100.00
23643;BME280;11998;55.788;37.572;2023-01-27T05:25:42;99340.00;;;-2.25;100.00
23643;BME280;11998;55.788;37.572;2023-01-27T05:26:43;99331.28;;;-2.27;100.00
23643;BME280;11998;55.788;37.572;2023-01-27T05:27:44;99339.06;;;-2.27;100.00
23643;BME280;11998;55.788;37.572;2023-01-27T05:28:46;99329.53;;;-2.28;100.00
23643;BME280;11998;55.788;37.572;2023-01-27T05:29:47;99343.41;;;-2.26;100.00
23643;BME280;11998;55.788;37.572;2023-01-27T05:30:47;99338.16;;;-2.29;100.00
23643;BME280;11998;55.788;37.572;2023-01-27T05:31:48;99334.84;;;-2.23;100.00
23643;BME280;11998;55.788;37.572;2023-01-27T05:32:48;99333.03;;;-2.26;100.00